createdAt,value
2023-03-06T00:00:15.444Z,0.00
2023-03-06T00:01:15.434Z,0.00
2023-03-06T00:02:15.417Z,0.00
2023-03-06T00:03:15.428Z,0.00
2023-03-06T00:04:15.394Z,0.00
2023-03-06T00:05:15.396Z,0.00
2023-03-06T00:06:15.423Z,0.00
2023-03-06T00:07:15.365Z,0.00
2023-03-06T00:08:15.342Z,0.00
2023-03-06T00:09:15.330Z,0.00
2023-03-06T00:10:15.318Z,0.00
2023-03-06T00:11:15.296Z,0.00
2023-03-06T00:12:15.310Z,0.00
2023-03-06T00:13:15.304Z,0.00
2023-03-06T00:14:22.268Z,0.00
2023-03-06T00:15:15.239Z,0.00
2023-03-06T00:16:15.244Z,0.00
2023-03-06T00:17:15.229Z,0.00
2023-03-06T00:18:15.212Z,0.00
2023-03-06T00:19:15.202Z,0.00
2023-03-06T00:20:15.201Z,0.00
2023-03-06T00:21:15.167Z,0.00
2023-03-06T00:22:15.164Z,0.00
2023-03-06T00:23:15.169Z,0.00
2023-03-06T00:24:15.134Z,0.00
2023-03-06T00:25:15.112Z,0.00
2023-03-06T00:26:15.133Z,0.00
2023-03-06T00:27:15.095Z,0.00
2023-03-06T00:28:15.084Z,0.00
2023-03-06T00:29:15.074Z,0.00
2023-03-06T00:30:15.047Z,0.00
2023-03-06T00:31:15.058Z,0.00
2023-03-06T00:32:15.050Z,0.00
2023-03-06T00:33:15.021Z,0.00
2023-03-06T00:34:15.017Z,0.00
2023-03-06T00:35:15.009Z,0.00
2023-03-06T00:36:14.989Z,0.00
2023-03-06T00:37:14.956Z,0.00
2023-03-06T00:38:14.943Z,0.00
2023-03-06T00:39:14.940Z,0.00
2023-03-06T00:40:14.916Z,0.00
2023-03-06T00:41:14.929Z,0.00
2023-03-06T00:42:14.885Z,0.00
2023-03-06T00:43:14.877Z,0.00
2023-03-06T00:44:14.910Z,0.00
2023-03-06T00:45:14.873Z,0.00
2023-03-06T00:46:14.835Z,0.00
2023-03-06T00:47:14.839Z,0.00
2023-03-06T00:48:14.806Z,0.00
2023-03-06T00:49:14.820Z,0.00
2023-03-06T00:50:14.838Z,0.00
2023-03-06T00:51:14.785Z,0.00
2023-03-06T00:52:14.767Z,0.00
2023-03-06T00:53:14.766Z,0.00
2023-03-06T00:54:14.741Z,0.00
2023-03-06T00:55:14.723Z,0.00
2023-03-06T00:56:14.745Z,0.00
2023-03-06T00:57:14.710Z,0.00
2023-03-06T00:58:14.698Z,0.00
2023-03-06T00:59:14.674Z,0.00
2023-03-06T01:00:14.660Z,0.00
2023-03-06T01:01:14.718Z,0.00
2023-03-06T01:02:26.349Z,0.00
2023-03-06T01:03:14.653Z,0.00
2023-03-06T01:04:14.603Z,0.00
2023-03-06T01:05:14.607Z,0.00
2023-03-06T01:06:14.586Z,0.00
2023-03-06T01:07:14.596Z,0.00
2023-03-06T01:08:14.564Z,0.00
2023-03-06T01:09:14.564Z,0.00
2023-03-06T01:10:14.546Z,0.00
2023-03-06T01:11:14.510Z,0.00
2023-03-06T01:12:14.498Z,0.00
2023-03-06T01:13:14.489Z,0.00
2023-03-06T01:14:14.484Z,0.00
2023-03-06T01:15:14.458Z,0.00
2023-03-06T01:16:14.492Z,0.00
2023-03-06T01:17:14.441Z,0.00
2023-03-06T01:18:14.444Z,0.00
2023-03-06T01:19:14.408Z,0.00
2023-03-06T01:20:14.422Z,0.00
2023-03-06T01:21:14.401Z,0.00
2023-03-06T01:22:14.382Z,0.00
2023-03-06T01:23:14.372Z,0.00
2023-03-06T01:24:14.351Z,0.00
2023-03-06T01:25:14.336Z,0.00
2023-03-06T01:26:14.333Z,0.00
2023-03-06T01:27:14.308Z,0.00
2023-03-06T01:28:14.300Z,0.00
2023-03-06T01:29:14.287Z,0.00
2023-03-06T01:30:14.286Z,0.00
2023-03-06T01:31:14.285Z,0.00
2023-03-06T01:32:14.262Z,0.00
2023-03-06T01:33:14.227Z,0.00
2023-03-06T01:34:14.220Z,0.00
2023-03-06T01:35:14.208Z,0.00
2023-03-06T01:36:14.203Z,0.00
2023-03-06T01:37:14.186Z,0.00
2023-03-06T01:38:14.229Z,0.00
2023-03-06T01:39:14.149Z,0.00
2023-03-06T01:40:14.175Z,0.00
2023-03-06T01:41:14.143Z,0.00
2023-03-06T01:42:14.133Z,0.00
2023-03-06T01:43:14.121Z,0.00
2023-03-06T01:44:14.090Z,0.00
2023-03-06T01:45:14.082Z,0.00
2023-03-06T01:46:14.175Z,0.00
2023-03-06T01:47:14.052Z,0.00
2023-03-06T01:48:14.043Z,0.00
2023-03-06T01:49:14.059Z,0.00
2023-03-06T01:50:14.026Z,0.00
2023-03-06T01:51:14.016Z,0.00
2023-03-06T01:52:14.021Z,0.00
2023-03-06T01:53:13.990Z,0.00
2023-03-06T01:54:14.073Z,0.00
2023-03-06T01:55:13.965Z,0.00
2023-03-06T01:56:13.945Z,0.00
2023-03-06T01:57:13.936Z,0.00
2023-03-06T01:58:13.937Z,0.00
2023-03-06T01:59:13.902Z,0.00
2023-03-06T02:00:13.915Z,0.00
2023-03-06T02:01:13.919Z,0.00
2023-03-06T02:02:13.906Z,0.00
2023-03-06T02:03:13.850Z,0.00
2023-03-06T02:04:13.854Z,0.00
2023-03-06T02:05:13.854Z,0.00
2023-03-06T02:06:13.813Z,0.00
2023-03-06T02:07:13.800Z,0.00
2023-03-06T02:08:13.808Z,0.00
2023-03-06T02:09:13.776Z,0.00
2023-03-06T02:10:13.780Z,0.00
2023-03-06T02:11:13.835Z,0.00
2023-03-06T02:12:13.747Z,0.00
2023-03-06T02:13:13.736Z,0.00
2023-03-06T02:14:13.728Z,0.00
2023-03-06T02:15:13.703Z,0.00
2023-03-06T02:16:13.717Z,0.00
2023-03-06T02:17:13.707Z,0.00
2023-03-06T02:18:13.673Z,0.00
2023-03-06T02:19:13.644Z,0.00
2023-03-06T02:20:13.676Z,0.00
2023-03-06T02:21:13.647Z,0.00
2023-03-06T02:22:13.612Z,0.00
2023-03-06T02:23:13.600Z,0.00
2023-03-06T02:24:13.614Z,0.00
2023-03-06T02:25:13.597Z,0.00
2023-03-06T02:26:13.563Z,0.00
2023-03-06T02:27:13.566Z,0.00
2023-03-06T02:28:13.561Z,0.00
2023-03-06T02:29:13.569Z,0.00
2023-03-06T02:30:13.526Z,0.00
2023-03-06T02:31:13.625Z,0.00
2023-03-06T02:32:13.512Z,0.00
2023-03-06T02:33:13.518Z,0.00
2023-03-06T02:34:13.488Z,0.00
2023-03-06T02:35:13.457Z,0.00
2023-03-06T02:36:13.492Z,0.00
2023-03-06T02:37:13.428Z,0.00
2023-03-06T02:38:13.418Z,0.00
2023-03-06T02:39:13.408Z,0.00
2023-03-06T02:40:13.419Z,0.00
2023-03-06T02:41:13.429Z,0.00
2023-03-06T02:42:13.368Z,0.00
2023-03-06T02:43:13.343Z,0.00
2023-03-06T02:44:13.333Z,0.00
2023-03-06T02:45:13.321Z,0.00
2023-03-06T02:46:13.396Z,0.00
2023-03-06T02:47:13.281Z,0.00
2023-03-06T02:48:13.313Z,0.00
2023-03-06T02:49:13.276Z,0.00
2023-03-06T02:50:13.264Z,0.00
2023-03-06T02:51:13.258Z,0.00
2023-03-06T02:52:13.228Z,0.00
2023-03-06T02:53:13.227Z,0.00
2023-03-06T02:54:13.197Z,0.00
2023-03-06T02:55:13.176Z,0.00
2023-03-06T02:56:13.178Z,0.00
2023-03-06T02:57:13.180Z,0.00
2023-03-06T02:58:13.161Z,0.00
2023-03-06T02:59:13.141Z,0.00
2023-03-06T03:00:13.131Z,0.00
2023-03-06T03:01:13.126Z,0.00
2023-03-06T03:02:13.125Z,0.00
2023-03-06T03:03:13.094Z,0.00
2023-03-06T03:04:13.135Z,0.00
2023-03-06T03:05:13.059Z,0.00
2023-03-06T03:06:13.046Z,0.00
2023-03-06T03:07:13.032Z,0.00
2023-03-06T03:08:13.047Z,0.00
2023-03-06T03:09:13.018Z,0.00
2023-03-06T03:10:13.007Z,0.00
2023-03-06T03:11:12.975Z,0.00
2023-03-06T03:12:12.975Z,0.00
2023-03-06T03:13:12.973Z,0.00
2023-03-06T03:14:12.964Z,0.00
2023-03-06T03:15:12.935Z,0.00
2023-03-06T03:16:12.982Z,0.00
2023-03-06T03:17:12.908Z,0.00
2023-03-06T03:18:12.924Z,0.00
2023-03-06T03:19:12.874Z,0.00
2023-03-06T03:20:12.866Z,0.00
2023-03-06T03:21:12.859Z,0.00
2023-03-06T03:22:12.848Z,0.00
2023-03-06T03:23:12.841Z,0.00
2023-03-06T03:24:12.837Z,0.00
2023-03-06T03:25:12.806Z,0.00
2023-03-06T03:26:12.801Z,0.00
2023-03-06T03:27:12.788Z,0.00
2023-03-06T03:28:12.775Z,0.00
2023-03-06T03:29:12.752Z,0.00
2023-03-06T03:30:12.769Z,0.00
2023-03-06T03:31:12.771Z,0.00
2023-03-06T03:32:12.743Z,0.00
2023-03-06T03:33:12.712Z,0.00
2023-03-06T03:34:12.704Z,0.00
2023-03-06T03:35:12.696Z,0.00
2023-03-06T03:36:12.677Z,0.00
2023-03-06T03:37:12.648Z,0.00
2023-03-06T03:38:12.662Z,0.00
2023-03-06T03:39:12.640Z,0.00
2023-03-06T03:40:12.649Z,0.00
2023-03-06T03:41:12.609Z,0.00
2023-03-06T03:42:12.604Z,0.00
2023-03-06T03:43:12.592Z,0.00
2023-03-06T03:44:12.576Z,0.00
2023-03-06T03:45:12.551Z,0.00
2023-03-06T03:46:12.548Z,0.00
2023-03-06T03:47:12.541Z,0.00
2023-03-06T03:48:12.518Z,0.00
2023-03-06T03:49:12.523Z,0.00
2023-03-06T03:50:12.510Z,0.00
2023-03-06T03:51:12.492Z,0.00
2023-03-06T03:52:12.482Z,0.00
2023-03-06T03:53:12.461Z,0.00
2023-03-06T03:54:12.463Z,0.00
2023-03-06T03:55:12.459Z,0.00
2023-03-06T03:56:12.420Z,0.00
2023-03-06T03:57:12.386Z,0.00
2023-03-06T03:58:12.432Z,0.00
2023-03-06T03:59:12.363Z,0.00
2023-03-06T04:00:12.386Z,0.00
2023-03-06T04:01:12.369Z,0.00
2023-03-06T04:02:12.367Z,0.00
2023-03-06T04:03:12.328Z,0.00
2023-03-06T04:04:12.326Z,0.00
2023-03-06T04:05:12.343Z,0.00
2023-03-06T04:06:12.302Z,0.00
2023-03-06T04:07:12.262Z,0.00
2023-03-06T04:08:12.277Z,0.00
2023-03-06T04:09:12.272Z,0.00
2023-03-06T04:10:12.267Z,0.00
2023-03-06T04:11:12.213Z,0.00
2023-03-06T04:12:12.219Z,0.00
2023-03-06T04:13:12.218Z,0.00
2023-03-06T04:14:12.198Z,0.00
2023-03-06T04:15:12.166Z,0.00
2023-03-06T04:16:12.222Z,0.00
2023-03-06T04:17:12.133Z,0.00
2023-03-06T04:18:12.161Z,0.00
2023-03-06T04:19:12.104Z,0.00
2023-03-06T04:20:12.115Z,0.00
2023-03-06T04:21:12.081Z,0.00
2023-03-06T04:22:12.107Z,0.00
2023-03-06T04:23:12.099Z,0.00
2023-03-06T04:24:12.058Z,0.00
2023-03-06T04:25:12.042Z,0.00
2023-03-06T04:26:12.052Z,0.00
2023-03-06T04:27:12.018Z,0.00
2023-03-06T04:28:12.052Z,0.00
2023-03-06T04:29:11.991Z,0.00
2023-03-06T04:30:12.009Z,0.00
2023-03-06T04:31:11.972Z,0.00
2023-03-06T04:32:12.030Z,0.00
2023-03-06T04:33:11.931Z,0.00
2023-03-06T04:34:11.925Z,0.00
2023-03-06T04:35:11.920Z,0.00
2023-03-06T04:36:11.931Z,0.00
2023-03-06T04:37:11.881Z,0.00
2023-03-06T04:38:11.886Z,0.00
2023-03-06T04:39:11.913Z,0.00
2023-03-06T04:40:11.862Z,0.00
2023-03-06T04:41:11.849Z,0.00
2023-03-06T04:42:11.815Z,0.00
2023-03-06T04:43:11.820Z,0.00
2023-03-06T04:44:11.810Z,0.00
2023-03-06T04:45:11.777Z,0.00
2023-03-06T04:46:11.811Z,0.00
2023-03-06T04:47:11.773Z,0.00
2023-03-06T04:48:11.746Z,0.00
2023-03-06T04:49:11.749Z,0.00
2023-03-06T04:50:11.749Z,0.00
2023-03-06T04:51:11.737Z,0.00
2023-03-06T04:52:11.725Z,0.00
2023-03-06T04:53:11.689Z,0.00
2023-03-06T04:54:11.689Z,0.00
2023-03-06T04:55:11.669Z,0.00
2023-03-06T04:56:11.659Z,0.00
2023-03-06T04:57:11.636Z,0.00
2023-03-06T04:58:11.627Z,0.00
2023-03-06T04:59:11.621Z,0.00
2023-03-06T05:00:11.617Z,0.00
2023-03-06T05:01:11.603Z,0.00
2023-03-06T05:02:11.585Z,0.00
2023-03-06T05:03:11.568Z,0.00
2023-03-06T05:04:11.569Z,0.00
2023-03-06T05:05:11.559Z,0.00
2023-03-06T05:06:11.524Z,0.00
2023-03-06T05:07:11.493Z,0.00
2023-03-06T05:08:11.513Z,0.00
2023-03-06T05:09:11.481Z,0.00
2023-03-06T05:10:11.495Z,0.00
2023-03-06T05:11:11.458Z,0.00
2023-03-06T05:12:11.430Z,0.00
2023-03-06T05:13:11.428Z,0.00
2023-03-06T05:14:11.425Z,4.00
2023-03-06T05:15:11.392Z,4.00
2023-03-06T05:16:11.441Z,4.00
2023-03-06T05:17:11.374Z,0.00
2023-03-06T05:18:11.375Z,0.00
2023-03-06T05:19:11.364Z,4.00
2023-03-06T05:20:11.372Z,0.00
2023-03-06T05:21:11.316Z,4.00
2023-03-06T05:22:11.314Z,4.00
2023-03-06T05:23:11.292Z,4.00
2023-03-06T05:24:11.309Z,4.00
2023-03-06T05:25:11.303Z,4.00
2023-03-06T05:26:11.302Z,8.00
2023-03-06T05:27:11.253Z,8.00
2023-03-06T05:28:11.242Z,12.00
2023-03-06T05:29:11.231Z,12.00
2023-03-06T05:30:11.220Z,12.00
2023-03-06T05:31:11.211Z,16.00
2023-03-06T05:32:11.302Z,16.00
2023-03-06T05:33:11.180Z,16.00
2023-03-06T05:34:11.161Z,20.00
2023-03-06T05:35:11.139Z,24.00
2023-03-06T05:36:11.149Z,28.00
2023-03-06T05:37:11.115Z,32.00
2023-03-06T05:38:11.120Z,36.00
2023-03-06T05:39:11.094Z,40.00
2023-03-06T05:40:11.082Z,40.00
2023-03-06T05:41:11.062Z,44.00
2023-03-06T05:42:11.111Z,52.00
2023-03-06T05:43:11.046Z,56.00
2023-03-06T05:44:11.038Z,64.00
2023-03-06T05:45:11.012Z,68.00
2023-03-06T05:46:11.046Z,76.00
2023-03-06T05:47:11.010Z,84.00
2023-03-06T05:48:10.999Z,92.00
2023-03-06T05:49:10.977Z,96.00
2023-03-06T05:50:10.955Z,104.00
2023-03-06T05:51:10.952Z,116.00
2023-03-06T05:52:10.957Z,128.00
2023-03-06T05:53:10.916Z,136.00
2023-03-06T05:54:10.904Z,148.00
2023-03-06T05:55:10.907Z,156.00
2023-03-06T05:56:10.906Z,156.00
2023-03-06T05:57:10.876Z,168.00
2023-03-06T05:58:10.850Z,176.00
2023-03-06T05:59:10.854Z,180.00
2023-03-06T06:00:10.835Z,200.00
2023-03-06T06:01:10.810Z,216.00
2023-03-06T06:02:10.908Z,232.00
2023-03-06T06:03:10.812Z,248.00
2023-03-06T06:04:10.797Z,260.00
2023-03-06T06:05:12.885Z,272.00
2023-03-06T06:06:10.750Z,292.00
2023-03-06T06:07:10.739Z,300.00
2023-03-06T06:08:10.733Z,312.00
2023-03-06T06:09:13.504Z,328.00
2023-03-06T06:10:10.714Z,340.00
2023-03-06T06:11:10.703Z,360.00
2023-03-06T06:12:10.701Z,372.00
2023-03-06T06:13:10.673Z,392.00
2023-03-06T06:15:13.240Z,424.00
2023-03-06T06:16:13.273Z,416.00
2023-03-06T06:17:13.196Z,420.00
2023-03-06T06:18:13.169Z,420.00
2023-03-06T06:19:13.159Z,416.00
2023-03-06T06:20:13.165Z,400.00
2023-03-06T06:21:13.139Z,392.00
2023-03-06T06:22:13.142Z,388.00
2023-03-06T06:23:13.110Z,404.00
2023-03-06T06:24:13.126Z,432.00
2023-03-06T06:25:13.110Z,412.00
2023-03-06T06:26:13.094Z,396.00
2023-03-06T06:27:13.066Z,436.00
2023-03-06T06:28:13.062Z,456.00
2023-03-06T06:29:13.040Z,472.00
2023-03-06T06:30:13.035Z,460.00
2023-03-06T06:31:13.072Z,464.00
2023-03-06T06:32:13.102Z,480.00
2023-03-06T06:33:13.022Z,496.00
2023-03-06T06:34:12.998Z,496.00
2023-03-06T06:35:12.970Z,512.00
2023-03-06T06:36:12.951Z,556.00
2023-03-06T06:37:12.949Z,592.00
2023-03-06T06:38:12.952Z,592.00
2023-03-06T06:39:12.922Z,576.00
2023-03-06T06:40:12.898Z,568.00
2023-03-06T06:41:38.817Z,612.00
2023-03-06T06:42:31.930Z,592.00
2023-03-06T06:43:13.914Z,580.00
2023-03-06T06:44:12.857Z,592.00
2023-03-06T06:45:12.842Z,612.00
2023-03-06T06:46:41.942Z,616.00
2023-03-06T06:47:23.387Z,568.00
2023-03-06T06:48:15.521Z,584.00
2023-03-06T06:49:12.814Z,636.00
2023-03-06T06:50:12.789Z,688.00
2023-03-06T06:51:12.755Z,728.00
2023-03-06T06:52:12.810Z,764.00
2023-03-06T06:53:12.749Z,788.00
2023-03-06T06:54:12.755Z,808.00
2023-03-06T06:55:12.726Z,872.00
2023-03-06T06:56:12.702Z,916.00
2023-03-06T06:57:12.698Z,988.00
2023-03-06T06:58:12.713Z,980.00
2023-03-06T06:59:17.472Z,1004.00
2023-03-06T07:00:13.663Z,1064.00
2023-03-06T07:01:12.674Z,1068.00
2023-03-06T07:02:12.630Z,1068.00
2023-03-06T07:03:12.606Z,1044.00
2023-03-06T07:04:12.636Z,1076.00
2023-03-06T07:05:12.603Z,1164.00
2023-03-06T07:06:12.583Z,1196.00
2023-03-06T07:07:12.577Z,1216.00
2023-03-06T07:08:12.601Z,1260.00
2023-03-06T07:09:12.585Z,1312.00
2023-03-06T07:10:12.523Z,1372.00
2023-03-06T07:11:12.539Z,1420.00
2023-03-06T07:12:12.519Z,1472.00
2023-03-06T07:13:12.507Z,1512.00
2023-03-06T07:14:12.472Z,1536.00
2023-03-06T07:15:12.464Z,1572.00
2023-03-06T07:16:12.534Z,1616.00
2023-03-06T07:17:12.419Z,1684.00
2023-03-06T07:18:12.419Z,1748.00
2023-03-06T07:19:12.451Z,1812.00
2023-03-06T07:20:12.452Z,1832.00
2023-03-06T07:21:12.462Z,1852.00
2023-03-06T07:22:12.386Z,1884.00
2023-03-06T07:23:12.359Z,1932.00
2023-03-06T07:24:12.379Z,1972.00
2023-03-06T07:25:12.343Z,2008.00
2023-03-06T07:26:12.346Z,2048.00
2023-03-06T07:27:12.307Z,2096.00
2023-03-06T07:28:12.367Z,2160.00
2023-03-06T07:29:12.310Z,2204.00
2023-03-06T07:30:12.269Z,2284.00
2023-03-06T07:31:12.297Z,2360.00
2023-03-06T07:32:12.283Z,2436.00
2023-03-06T07:33:12.238Z,2508.00
2023-03-06T07:34:12.241Z,2572.00
2023-03-06T07:35:20.138Z,2592.00
2023-03-06T07:36:13.996Z,2616.00
2023-03-06T07:37:12.226Z,2604.00
2023-03-06T07:38:12.195Z,2552.00
2023-03-06T07:39:12.161Z,2496.00
2023-03-06T07:40:12.165Z,2436.00
2023-03-06T07:41:12.131Z,2372.00
2023-03-06T07:42:12.157Z,2336.00
2023-03-06T07:43:19.011Z,2344.00
2023-03-06T07:44:13.157Z,2440.00
2023-03-06T07:45:12.082Z,2620.00
2023-03-06T07:46:12.129Z,2704.00
2023-03-06T07:47:12.042Z,2668.00
2023-03-06T07:48:12.133Z,2608.00
2023-03-06T07:49:12.048Z,2568.00
2023-03-06T07:50:12.054Z,2548.00
2023-03-06T07:51:12.014Z,2528.00
2023-03-06T07:52:11.993Z,2504.00
2023-03-06T07:53:12.037Z,2436.00
2023-03-06T07:54:12.010Z,2316.00
2023-03-06T07:55:11.981Z,2216.00
2023-03-06T07:56:11.996Z,2128.00
2023-03-06T07:57:11.933Z,2056.00
2023-03-06T07:58:11.995Z,1984.00
2023-03-06T07:59:11.902Z,1944.00
2023-03-06T08:00:11.948Z,1924.00
2023-03-06T08:01:11.922Z,2040.00
2023-03-06T08:02:11.877Z,2256.00
2023-03-06T08:03:11.988Z,2448.00
2023-03-06T08:04:11.946Z,2484.00
2023-03-06T08:05:11.842Z,2460.00
2023-03-06T08:06:11.830Z,2464.00
2023-03-06T08:07:11.824Z,2464.00
2023-03-06T08:08:11.838Z,2404.00
2023-03-06T08:09:11.778Z,2376.00
2023-03-06T08:10:11.849Z,2416.00
2023-03-06T08:11:11.737Z,2520.00
2023-03-06T08:12:11.748Z,2532.00
2023-03-06T08:13:11.736Z,2544.00
2023-03-06T08:14:11.732Z,2556.00
2023-03-06T08:15:11.760Z,2604.00
2023-03-06T08:16:11.768Z,2744.00
2023-03-06T08:17:11.702Z,3024.00
2023-03-06T08:18:11.705Z,3156.00
2023-03-06T08:19:11.656Z,3276.00
2023-03-06T08:20:11.634Z,3468.00
2023-03-06T08:21:11.629Z,3632.00
2023-03-06T08:22:11.623Z,3696.00
2023-03-06T08:23:11.601Z,3772.00
2023-03-06T08:24:11.596Z,3784.00
2023-03-06T08:25:11.603Z,3728.00
2023-03-06T08:26:11.567Z,3692.00
2023-03-06T08:27:11.533Z,3724.00
2023-03-06T08:28:11.530Z,3892.00
2023-03-06T08:29:11.517Z,4004.00
2023-03-06T08:30:11.502Z,4092.00
2023-03-06T08:31:11.535Z,4172.00
2023-03-06T08:32:11.482Z,4152.00
2023-03-06T08:33:11.535Z,4124.00
2023-03-06T08:34:11.494Z,4120.00
2023-03-06T08:35:11.451Z,4080.00
2023-03-06T08:36:11.422Z,4116.00
2023-03-06T08:37:11.543Z,4220.00
2023-03-06T08:38:11.414Z,4192.00
2023-03-06T08:39:11.495Z,4144.00
2023-03-06T08:40:11.386Z,4084.00
2023-03-06T08:41:11.364Z,4032.00
2023-03-06T08:42:11.366Z,3996.00
2023-03-06T08:43:13.071Z,3936.00
2023-03-06T08:44:11.331Z,3852.00
2023-03-06T08:45:11.321Z,3712.00
2023-03-06T08:46:11.295Z,3712.00
2023-03-06T08:47:11.294Z,3700.00
2023-03-06T08:48:11.295Z,3688.00
2023-03-06T08:49:11.253Z,3700.00
2023-03-06T08:50:11.247Z,3788.00
2023-03-06T08:51:11.274Z,3896.00
2023-03-06T08:52:11.233Z,3968.00
2023-03-06T08:53:11.213Z,4060.00
2023-03-06T08:54:11.211Z,4104.00
2023-03-06T08:55:11.193Z,4128.00
2023-03-06T08:56:11.184Z,4136.00
2023-03-06T08:57:11.164Z,4180.00
2023-03-06T08:58:11.192Z,4220.00
2023-03-06T08:59:11.171Z,4248.00
2023-03-06T09:00:11.130Z,4284.00
2023-03-06T09:01:11.135Z,4304.00
2023-03-06T09:02:11.214Z,4312.00
2023-03-06T09:03:11.081Z,4328.00
2023-03-06T09:04:11.117Z,4376.00
2023-03-06T09:05:11.091Z,4448.00
2023-03-06T09:06:11.090Z,4456.00
2023-03-06T09:07:11.043Z,4480.00
2023-03-06T09:08:11.018Z,4488.00
2023-03-06T09:09:11.014Z,4440.00
2023-03-06T09:10:11.014Z,4368.00
2023-03-06T09:11:10.993Z,4228.00
2023-03-06T09:12:10.982Z,4096.00
2023-03-06T09:13:10.952Z,3920.00
2023-03-06T09:14:10.986Z,3816.00
2023-03-06T09:15:10.939Z,3872.00
2023-03-06T09:16:10.976Z,4136.00
2023-03-06T09:17:10.903Z,4356.00
2023-03-06T09:18:10.971Z,4344.00
2023-03-06T09:19:10.881Z,4308.00
2023-03-06T09:20:10.919Z,4260.00
2023-03-06T09:21:10.873Z,4108.00
2023-03-06T09:22:10.865Z,3928.00
2023-03-06T09:23:10.837Z,3804.00
2023-03-06T09:24:10.822Z,3692.00
2023-03-06T09:25:10.824Z,3512.00
2023-03-06T09:26:10.840Z,3232.00
2023-03-06T09:27:10.800Z,3012.00
2023-03-06T09:28:12.054Z,3108.00
2023-03-06T09:29:10.758Z,3212.00
2023-03-06T09:30:10.756Z,3264.00
2023-03-06T09:31:10.824Z,3160.00
2023-03-06T09:32:12.197Z,3012.00
2023-03-06T09:33:10.740Z,3120.00
2023-03-06T09:34:10.722Z,3300.00
2023-03-06T09:35:10.682Z,3372.00
2023-03-06T09:36:10.670Z,3344.00
2023-03-06T09:37:10.668Z,3312.00
2023-03-06T09:38:10.708Z,3244.00
2023-03-06T09:39:10.659Z,3208.00
2023-03-06T09:40:10.624Z,3248.00
2023-03-06T09:41:15.832Z,3240.00
2023-03-06T09:42:10.603Z,3244.00
2023-03-06T09:43:10.585Z,3308.00
2023-03-06T09:44:10.571Z,3336.00
2023-03-06T09:45:10.561Z,3236.00
2023-03-06T09:46:10.668Z,3084.00
2023-03-06T09:47:10.536Z,3064.00
2023-03-06T09:48:10.551Z,3048.00
2023-03-06T09:49:10.577Z,2988.00
2023-03-06T09:50:10.573Z,3020.00
2023-03-06T09:51:10.483Z,3160.00
2023-03-06T09:52:10.474Z,3244.00
2023-03-06T09:53:10.466Z,3268.00
2023-03-06T09:54:10.472Z,3204.00
2023-03-06T09:55:10.443Z,3100.00
2023-03-06T09:56:10.418Z,3120.00
2023-03-06T09:57:10.441Z,3180.00
2023-03-06T09:58:10.432Z,3104.00
2023-03-06T09:59:10.388Z,2960.00
2023-03-06T10:00:10.380Z,2948.00
2023-03-06T10:01:10.364Z,3068.00
2023-03-06T10:02:10.532Z,3196.00
2023-03-06T10:03:10.446Z,3272.00
2023-03-06T10:04:10.352Z,3376.00
2023-03-06T10:05:10.380Z,3580.00
2023-03-06T10:06:10.322Z,3872.00
2023-03-06T10:07:10.288Z,4144.00
2023-03-06T10:08:10.294Z,4276.00
2023-03-06T10:09:10.271Z,4248.00
2023-03-06T10:10:10.249Z,4172.00
2023-03-06T10:11:10.244Z,4108.00
2023-03-06T10:12:10.250Z,3972.00
2023-03-06T10:13:10.230Z,3824.00
2023-03-06T10:14:10.206Z,3708.00
2023-03-06T10:15:10.201Z,3476.00
2023-03-06T10:16:10.224Z,3240.00
2023-03-06T10:17:10.151Z,3016.00
2023-03-06T10:18:10.159Z,2944.00
2023-03-06T10:19:10.172Z,2992.00
2023-03-06T10:20:10.130Z,2968.00
2023-03-06T10:21:19.041Z,2880.00
2023-03-06T10:22:11.121Z,2828.00
2023-03-06T10:23:11.186Z,2852.00
2023-03-06T10:24:10.074Z,2972.00
2023-03-06T10:25:10.066Z,3096.00
2023-03-06T10:26:10.106Z,3272.00
2023-03-06T10:27:10.619Z,3508.00
2023-03-06T10:28:10.032Z,3704.00
2023-03-06T10:29:09.999Z,3772.00
2023-03-06T10:30:10.022Z,3760.00
2023-03-06T10:31:10.609Z,3736.00
2023-03-06T10:32:10.022Z,3652.00
2023-03-06T10:33:09.979Z,3504.00
2023-03-06T10:34:09.968Z,3264.00
2023-03-06T10:35:10.010Z,2992.00
2023-03-06T10:36:09.941Z,2740.00
2023-03-06T10:37:09.926Z,2628.00
2023-03-06T10:38:09.936Z,2672.00
2023-03-06T10:39:09.892Z,2720.00
2023-03-06T10:40:09.918Z,2792.00
2023-03-06T10:41:09.872Z,2960.00
2023-03-06T10:42:09.886Z,3188.00
2023-03-06T10:43:12.026Z,3376.00
2023-03-06T10:44:09.901Z,3492.00
2023-03-06T10:45:09.875Z,3528.00
2023-03-06T10:46:09.981Z,3512.00
2023-03-06T10:47:09.802Z,3492.00
2023-03-06T10:48:09.804Z,3504.00
2023-03-06T10:49:09.767Z,3644.00
2023-03-06T10:50:09.752Z,3972.00
2023-03-06T10:51:17.812Z,4228.00
2023-03-06T10:52:10.735Z,4084.00
2023-03-06T10:53:09.727Z,3844.00
2023-03-06T10:54:09.700Z,3576.00
2023-03-06T10:55:11.769Z,3348.00
2023-03-06T10:56:09.680Z,3372.00
2023-03-06T10:57:09.678Z,3496.00
2023-03-06T10:58:09.693Z,3400.00
2023-03-06T10:59:09.640Z,3204.00
2023-03-06T11:00:09.663Z,3124.00
2023-03-06T11:01:09.623Z,3204.00
2023-03-06T11:02:09.595Z,3460.00
2023-03-06T11:03:09.589Z,3904.00
2023-03-06T11:04:09.623Z,4192.00
2023-03-06T11:05:09.556Z,4296.00
2023-03-06T11:06:12.182Z,4264.00
2023-03-06T11:07:09.531Z,4216.00
2023-03-06T11:08:09.517Z,4196.00
2023-03-06T11:09:09.510Z,4148.00
2023-03-06T11:10:09.512Z,4092.00
2023-03-06T11:11:09.470Z,4016.00
2023-03-06T11:12:09.507Z,3936.00
2023-03-06T11:13:09.460Z,4024.00
2023-03-06T11:14:09.441Z,4072.00
2023-03-06T11:15:09.419Z,4156.00
2023-03-06T11:16:09.510Z,4164.00
2023-03-06T11:17:09.411Z,4160.00
2023-03-06T11:18:09.412Z,4124.00
2023-03-06T11:19:09.390Z,4084.00
2023-03-06T11:20:09.363Z,4084.00
2023-03-06T11:21:09.399Z,4200.00
2023-03-06T11:22:09.361Z,4556.00
2023-03-06T11:23:09.319Z,4932.00
2023-03-06T11:24:09.360Z,5068.00
2023-03-06T11:25:09.405Z,4984.00
2023-03-06T11:26:09.298Z,4796.00
2023-03-06T11:27:09.273Z,4556.00
2023-03-06T11:28:09.272Z,4348.00
2023-03-06T11:29:09.280Z,4020.00
2023-03-06T11:30:09.228Z,3856.00
2023-03-06T11:31:09.266Z,3988.00
2023-03-06T11:32:09.348Z,4304.00
2023-03-06T11:33:09.231Z,4700.00
2023-03-06T11:34:09.197Z,4732.00
2023-03-06T11:35:09.184Z,4592.00
2023-03-06T11:36:09.178Z,4348.00
2023-03-06T11:37:09.171Z,4300.00
2023-03-06T11:38:09.167Z,4444.00
2023-03-06T11:39:09.137Z,4608.00
2023-03-06T11:40:09.137Z,4764.00
2023-03-06T11:41:09.125Z,4916.00
2023-03-06T11:42:09.094Z,5200.00
2023-03-06T11:43:09.090Z,5476.00
2023-03-06T11:44:09.084Z,5600.00
2023-03-06T11:45:09.072Z,5728.00
2023-03-06T11:46:09.032Z,5860.00
2023-03-06T11:47:09.035Z,5948.00
2023-03-06T11:48:09.038Z,6020.00
2023-03-06T11:49:09.044Z,6036.00
2023-03-06T11:50:09.019Z,6044.00
2023-03-06T11:51:08.972Z,5860.00
2023-03-06T11:52:08.967Z,5484.00
2023-03-06T11:53:08.942Z,5088.00
2023-03-06T11:54:08.936Z,5000.00
2023-03-06T11:55:08.915Z,5344.00
2023-03-06T11:56:08.905Z,5664.00
2023-03-06T11:57:08.930Z,5920.00
2023-03-06T11:58:08.892Z,6140.00
2023-03-06T11:59:08.888Z,6252.00
2023-03-06T12:00:08.854Z,6332.00
2023-03-06T12:01:08.857Z,6472.00
2023-03-06T12:02:08.913Z,6700.00
2023-03-06T12:03:08.837Z,6864.00
2023-03-06T12:04:08.817Z,6880.00
2023-03-06T12:05:08.851Z,6924.00
2023-03-06T12:06:08.777Z,7016.00
2023-03-06T12:07:08.780Z,7076.00
2023-03-06T12:08:08.748Z,7060.00
2023-03-06T12:09:08.733Z,7000.00
2023-03-06T12:10:08.761Z,6944.00
2023-03-06T12:12:08.734Z,6816.00
2023-03-06T12:13:08.677Z,6824.00
2023-03-06T12:14:08.666Z,6904.00
2023-03-06T12:15:15.758Z,6912.00
2023-03-06T12:16:08.678Z,6900.00
2023-03-06T12:17:08.647Z,6860.00
2023-03-06T12:18:08.634Z,6828.00
2023-03-06T12:19:08.608Z,6752.00
2023-03-06T12:20:08.597Z,6616.00
2023-03-06T12:21:08.600Z,6476.00
2023-03-06T12:22:08.567Z,6300.00
2023-03-06T12:23:15.456Z,6200.00
2023-03-06T12:24:09.549Z,6168.00
2023-03-06T12:25:08.541Z,6224.00
2023-03-06T12:26:08.542Z,6044.00
2023-03-06T12:27:08.536Z,5896.00
2023-03-06T12:28:08.507Z,5732.00
2023-03-06T12:29:11.136Z,5460.00
2023-03-06T12:30:08.478Z,5260.00
2023-03-06T12:31:08.456Z,5296.00
2023-03-06T12:32:08.679Z,5584.00
2023-03-06T12:33:08.437Z,6088.00
2023-03-06T12:34:08.450Z,6500.00
2023-03-06T12:35:08.410Z,6656.00
2023-03-06T12:36:08.394Z,6712.00
2023-03-06T12:37:08.384Z,6812.00
2023-03-06T12:38:08.402Z,6832.00
2023-03-06T12:39:08.353Z,6732.00
2023-03-06T12:40:08.348Z,6564.00
2023-03-06T12:41:08.339Z,6464.00